| time (UTC) | temp F | wind direction | speed MPH | gust MPH | rain 1hr in | rain 24hr in | rain mn in | humidity % | barometer mb |
| 20260506062428 | 58 | 104 | 1.0 | 1.0 | 0.00 | 0.02 | 0.02 | 80 | 1016.7 |
| 20260506061923 | 58 | 82 | 0.0 | 1.0 | 0.00 | 0.02 | 0.02 | 80 | 1017.0 |
| 20260506061420 | 58 | 95 | 1.0 | 2.0 | 0.00 | 0.02 | 0.02 | 80 | 1016.8 |
| 20260506060918 | 58 | 88 | 0.0 | 1.0 | 0.00 | 0.02 | 0.02 | 80 | 1016.8 |
| 20260506060416 | 58 | 109 | 2.0 | 3.0 | 0.00 | 0.02 | 0.02 | 80 | 1016.6 |
| 20260506051348 | 58 | 56 | 1.0 | 2.0 | 0.00 | 0.02 | 0.02 | 77 | 1016.4 |
| 20260506050845 | 59 | 47 | 1.0 | 1.0 | 0.00 | 0.02 | 0.02 | 78 | 1016.1 |
| 20260506050343 | 59 | 67 | 1.0 | 1.0 | 0.00 | 0.02 | 0.02 | 76 | 1016.2 |
| 20260506044833 | 58 | 90 | 0.0 | 1.0 | 0.00 | 0.02 | 0.02 | 78 | 1016.0 |
| 20260506044331 | 58 | 73 | 1.0 | 2.0 | 0.00 | 0.02 | 0.02 | 77 | 1015.8 |
| 20260506043828 | 58 | 79 | 1.0 | 3.0 | 0.00 | 0.02 | 0.02 | 78 | 1016.1 |
| 20260506043325 | 58 | 85 | 2.0 | 2.0 | 0.00 | 0.02 | 0.02 | 79 | 1015.7 |
| 20260506042823 | 58 | 91 | 2.0 | 3.0 | 0.00 | 0.02 | 0.02 | 79 | 1016.0 |
| 20260506042322 | 58 | 97 | 2.0 | 2.0 | 0.00 | 0.02 | 0.02 | 79 | 1015.6 |
| 20260506041821 | 58 | 100 | 1.0 | 1.0 | 0.00 | 0.02 | 0.02 | 81 | 1015.7 |
| 20260506041317 | 58 | 92 | 0.0 | 1.0 | 0.00 | 0.02 | 0.02 | 81 | 1015.7 |
| 20260506040814 | 58 | 91 | 0.0 | 1.0 | 0.00 | 0.02 | 0.02 | 81 | 1015.6 |
| 20260506040311 | 58 | 155 | 2.0 | 2.0 | 0.00 | 0.02 | 0.02 | 80 | 1015.4 |
| 20260506035808 | 58 | 101 | 2.0 | 2.0 | 0.00 | 0.02 | 0.02 | 81 | 1015.3 |
| 20260506035306 | 58 | 88 | 1.0 | 2.0 | 0.00 | 0.02 | 0.02 | 81 | 1015.4 |
| 20260506034802 | 58 | 96 | 1.0 | 3.0 | 0.00 | 0.02 | 0.02 | 81 | 1015.3 |
| 20260506034259 | 58 | 86 | 1.0 | 1.0 | 0.00 | 0.02 | 0.02 | 81 | 1015.2 |
| 20260506033756 | 58 | 71 | 1.0 | 2.0 | 0.00 | 0.02 | 0.02 | 80 | 1015.1 |
| 20260506033253 | 58 | 87 | 0.0 | 0.0 | 0.00 | 0.02 | 0.02 | 80 | 1015.0 |
| 20260506032750 | 58 | 93 | 0.0 | 1.0 | 0.00 | 0.02 | 0.02 | 80 | 1014.9 |
| 20260506032247 | 58 | 101 | 0.0 | 1.0 | 0.00 | 0.02 | 0.02 | 80 | 1014.9 |
| 20260506031743 | 58 | 88 | 0.0 | 0.0 | 0.00 | 0.02 | 0.02 | 79 | 1014.8 |
| 20260506031241 | 58 | 80 | 1.0 | 1.0 | 0.00 | 0.02 | 0.02 | 79 | 1014.9 |
| 20260506030739 | 58 | 55 | 0.0 | 1.0 | 0.00 | 0.02 | 0.02 | 80 | 1014.9 |
| 20260506030236 | 58 | 120 | 1.0 | 1.0 | 0.00 | 0.02 | 0.02 | 80 | 1014.6 |
| 20260506025733 | 58 | 92 | 0.0 | 1.0 | 0.00 | 0.02 | 0.02 | 82 | 1014.7 |
| 20260506025229 | 58 | 141 | 2.0 | 2.0 | 0.00 | 0.02 | 0.02 | 82 | 1014.3 |
| 20260506024726 | 58 | 91 | 1.0 | 2.0 | 0.00 | 0.02 | 0.02 | 82 | 1014.3 |
| 20260506024223 | 58 | 137 | 0.0 | 1.0 | 0.00 | 0.02 | 0.02 | 82 | 1014.6 |
| 20260506023719 | 59 | 142 | 0.0 | 1.0 | 0.00 | 0.02 | 0.02 | 81 | 1014.2 |
| 20260506023217 | 59 | 140 | 0.0 | 1.0 | 0.00 | 0.02 | 0.02 | 80 | 1014.3 |
| 20260506022713 | 59 | 93 | 0.0 | 1.0 | 0.00 | 0.02 | 0.02 | 80 | 1014.2 |
| 20260506022211 | 59 | 98 | 0.0 | 1.0 | 0.00 | 0.02 | 0.02 | 80 | 1014.4 |
| 20260506021709 | 59 | 109 | 1.0 | 1.0 | 0.00 | 0.02 | 0.02 | 80 | 1014.2 |
| 20260506021206 | 59 | 97 | 0.0 | 1.0 | 0.00 | 0.02 | 0.02 | 79 | 1014.1 |
| 20260506020703 | 59 | 156 | 1.0 | 3.0 | 0.00 | 0.02 | 0.02 | 79 | 1014.0 |
| 20260506020200 | 59 | 135 | 2.0 | 2.0 | 0.00 | 0.02 | 0.02 | 80 | 1013.9 |
| 20260506015658 | 59 | 108 | 1.0 | 2.0 | 0.00 | 0.02 | 0.02 | 80 | 1013.8 |
| 20260506015155 | 59 | 151 | 2.0 | 3.0 | 0.00 | 0.02 | 0.02 | 79 | 1014.0 |
| 20260506014652 | 59 | 160 | 3.0 | 3.0 | 0.00 | 0.02 | 0.02 | 79 | 1013.9 |
| 20260506014148 | 59 | 152 | 5.0 | 6.0 | 0.00 | 0.02 | 0.02 | 79 | 1013.9 |
| 20260506013646 | 59 | 120 | 1.0 | 5.0 | 0.00 | 0.02 | 0.02 | 80 | 1014.0 |
| 20260506013143 | 59 | 145 | 3.0 | 6.0 | 0.00 | 0.02 | 0.02 | 79 | 1013.9 |
| 20260506012639 | 59 | 158 | 3.0 | 5.0 | 0.00 | 0.02 | 0.02 | 79 | 1013.9 |
| 20260506012136 | 59 | 147 | 3.0 | 6.0 | 0.00 | 0.02 | 0.02 | 79 | 1013.7 |
| 20260506011633 | 59 | 169 | 4.0 | 6.0 | 0.00 | 0.02 | 0.02 | 79 | 1013.7 |
| 20260506011129 | 59 | 148 | 5.0 | 7.0 | 0.00 | 0.02 | 0.02 | 78 | 1014.0 |
| 20260506010628 | 59 | 116 | 3.0 | 5.0 | 0.00 | 0.02 | 0.02 | 79 | 1013.8 |
| 20260506010125 | 59 | 165 | 5.0 | 6.0 | 0.00 | 0.02 | 0.02 | 78 | 1013.7 |
| 20260506005622 | 59 | 138 | 3.0 | 5.0 | 0.00 | 0.02 | 0.02 | 77 | 1013.8 |
| 20260506005118 | 60 | 134 | 4.0 | 7.0 | 0.00 | 0.02 | 0.02 | 76 | 1013.6 |
| 20260506004615 | 60 | 167 | 6.0 | 8.0 | 0.00 | 0.02 | 0.02 | 76 | 1013.3 |
| 20260506004112 | 60 | 166 | 3.0 | 7.0 | 0.00 | 0.02 | 0.02 | 76 | 1013.5 |
| 20260506003608 | 60 | 143 | 3.0 | 5.0 | 0.00 | 0.02 | 0.02 | 76 | 1013.5 |
| 20260506003104 | 60 | 142 | 3.0 | 6.0 | 0.00 | 0.02 | 0.02 | 76 | 1013.5 |
| 20260506002600 | 60 | 128 | 3.0 | 5.0 | 0.00 | 0.02 | 0.02 | 76 | 1013.5 |
| 20260506002057 | 60 | 155 | 3.0 | 5.0 | 0.00 | 0.02 | 0.02 | 76 | 1013.5 |
| 20260506001553 | 60 | 171 | 4.0 | 6.0 | 0.00 | 0.02 | 0.02 | 74 | 1013.4 |
| 20260506001050 | 60 | 152 | 3.0 | 7.0 | 0.00 | 0.02 | 0.02 | 75 | 1013.3 |
| 20260506000547 | 60 | 161 | 4.0 | 5.0 | 0.00 | 0.02 | 0.02 | 76 | 1013.5 |
| 20260506000045 | 60 | 171 | 4.0 | 7.0 | 0.00 | 0.02 | 0.02 | 75 | 1013.3 |
| 20260505235543 | 60 | 132 | 3.0 | 5.0 | 0.00 | 0.02 | 0.02 | 76 | 1013.4 |
| 20260505235039 | 60 | 174 | 3.0 | 6.0 | 0.00 | 0.02 | 0.02 | 75 | 1013.3 |
| 20260505234536 | 60 | 172 | 3.0 | 3.0 | 0.00 | 0.02 | 0.02 | 76 | 1013.4 |
| 20260505234033 | 60 | 171 | 3.0 | 6.0 | 0.00 | 0.02 | 0.02 | 75 | 1013.4 |
| 20260505233531 | 60 | 139 | 3.0 | 6.0 | 0.00 | 0.02 | 0.02 | 74 | 1013.4 |
| 20260505233028 | 60 | 168 | 4.0 | 6.0 | 0.00 | 0.02 | 0.02 | 74 | 1013.5 |
| 20260505232526 | 61 | 166 | 6.0 | 7.0 | 0.00 | 0.02 | 0.02 | 73 | 1013.4 |
| 20260505232023 | 61 | 153 | 3.0 | 6.0 | 0.00 | 0.02 | 0.02 | 74 | 1013.3 |
| 20260505231520 | 61 | 161 | 3.0 | 5.0 | 0.00 | 0.02 | 0.02 | 74 | 1013.6 |
| 20260505231019 | 61 | 152 | 3.0 | 6.0 | 0.00 | 0.02 | 0.02 | 72 | 1013.7 |
| 20260505230515 | 61 | 164 | 3.0 | 5.0 | 0.00 | 0.02 | 0.02 | 73 | 1013.5 |
| 20260505230012 | 61 | 148 | 2.0 | 5.0 | 0.00 | 0.02 | 0.02 | 72 | 1013.7 |
| 20260505225509 | 61 | 168 | 4.0 | 6.0 | 0.00 | 0.02 | 0.02 | 73 | 1013.8 |
| 20260505225005 | 61 | 123 | 1.0 | 5.0 | 0.00 | 0.02 | 0.02 | 71 | 1013.6 |
| 20260505224502 | 61 | 114 | 2.0 | 5.0 | 0.00 | 0.02 | 0.02 | 70 | 1013.8 |
| 20260505223959 | 61 | 130 | 2.0 | 3.0 | 0.00 | 0.02 | 0.02 | 70 | 1013.9 |
| 20260505223456 | 61 | 101 | 0.0 | 6.0 | 0.00 | 0.02 | 0.02 | 72 | 1013.9 |
| 20260505222952 | 61 | 188 | 3.0 | 3.0 | 0.00 | 0.02 | 0.02 | 71 | 1014.0 |
| 20260505222448 | 61 | 153 | 2.0 | 3.0 | 0.00 | 0.02 | 0.02 | 71 | 1014.1 |
| 20260505221944 | 60 | 132 | 3.0 | 5.0 | 0.00 | 0.02 | 0.02 | 71 | 1014.1 |
| 20260505221442 | 60 | 172 | 3.0 | 6.0 | 0.00 | 0.02 | 0.02 | 72 | 1014.0 |
| 20260505220939 | 60 | 146 | 1.0 | 3.0 | 0.00 | 0.02 | 0.02 | 73 | 1014.0 |
| 20260505220436 | 60 | 156 | 3.0 | 3.0 | 0.00 | 0.02 | 0.02 | 73 | 1014.2 |
| 20260505215933 | 60 | 119 | 3.0 | 5.0 | 0.00 | 0.02 | 0.02 | 74 | 1014.1 |
| 20260505215431 | 60 | 149 | 3.0 | 6.0 | 0.00 | 0.02 | 0.02 | 73 | 1014.0 |
| 20260505214929 | 60 | 122 | 4.0 | 5.0 | 0.00 | 0.02 | 0.02 | 75 | 1014.1 |
| 20260505214427 | 60 | 103 | 1.0 | 2.0 | 0.00 | 0.02 | 0.02 | 76 | 1014.0 |
| 20260505213924 | 60 | 161 | 4.0 | 5.0 | 0.00 | 0.02 | 0.02 | 75 | 1014.0 |
| 20260505213421 | 60 | 178 | 3.0 | 3.0 | 0.00 | 0.02 | 0.02 | 75 | 1014.2 |
| 20260505212917 | 59 | 104 | 0.0 | 1.0 | 0.00 | 0.02 | 0.02 | 75 | 1014.1 |
| 20260505212414 | 59 | 168 | 2.0 | 5.0 | 0.00 | 0.02 | 0.02 | 76 | 1014.1 |
| 20260505211910 | 59 | 147 | 3.0 | 3.0 | 0.00 | 0.02 | 0.02 | 76 | 1014.2 |
| 20260505211409 | 59 | 168 | 2.0 | 2.0 | 0.00 | 0.02 | 0.02 | 76 | 1014.4 |
| 20260505210904 | 59 | 170 | 3.0 | 3.0 | 0.00 | 0.02 | 0.02 | 76 | 1014.2 |
| 20260505210402 | 59 | 173 | 2.0 | 3.0 | 0.00 | 0.02 | 0.02 | 75 | 1014.1 |
| 20260505205858 | 59 | 166 | 2.0 | 3.0 | 0.00 | 0.02 | 0.02 | 74 | 1014.3 |
| 20260505205357 | 60 | 169 | 3.0 | 3.0 | 0.00 | 0.02 | 0.02 | 74 | 1014.2 |
| 20260505204853 | 60 | 355 | 0.0 | 3.0 | 0.00 | 0.02 | 0.02 | 72 | 1014.3 |
| 20260505204351 | 60 | 311 | 1.0 | 2.0 | 0.00 | 0.02 | 0.02 | 72 | 1014.2 |
| 20260505203848 | 61 | 233 | 2.0 | 3.0 | 0.00 | 0.02 | 0.02 | 72 | 1014.3 |
| 20260505203344 | 61 | 174 | 3.0 | 5.0 | 0.00 | 0.02 | 0.02 | 71 | 1013.9 |
| 20260505202841 | 62 | 76 | 0.0 | 5.0 | 0.00 | 0.02 | 0.02 | 70 | 1014.0 |
| 20260505202337 | 62 | 182 | 1.0 | 3.0 | 0.00 | 0.02 | 0.02 | 72 | 1014.1 |
| 20260505201834 | 62 | 339 | 2.0 | 5.0 | 0.00 | 0.02 | 0.02 | 69 | 1014.1 |
| 20260505201332 | 61 | 178 | 2.0 | 3.0 | 0.00 | 0.02 | 0.02 | 73 | 1014.4 |
| 20260505200830 | 62 | 175 | 4.0 | 7.0 | 0.00 | 0.02 | 0.02 | 69 | 1014.2 |
| 20260505200326 | 60 | 176 | 2.0 | 3.0 | 0.00 | 0.02 | 0.02 | 77 | 1014.4 |
| 20260505195821 | 59 | 112 | 1.0 | 3.0 | 0.00 | 0.02 | 0.02 | 77 | 1014.2 |
| 20260505195319 | 59 | 135 | 1.0 | 2.0 | 0.00 | 0.02 | 0.02 | 75 | 1014.4 |
| 20260505194816 | 59 | 14 | 2.0 | 3.0 | 0.00 | 0.02 | 0.02 | 78 | 1014.4 |
| 20260505194313 | 59 | 354 | 1.0 | 2.0 | 0.00 | 0.02 | 0.02 | 77 | 1014.7 |
| 20260505193808 | 58 | 162 | 2.0 | 2.0 | 0.00 | 0.02 | 0.02 | 76 | 1014.7 |
| 20260505193307 | 58 | 276 | 3.0 | 3.0 | 0.00 | 0.02 | 0.02 | 76 | 1014.4 |
| 20260505192804 | 58 | 354 | 2.0 | 3.0 | 0.00 | 0.02 | 0.02 | 78 | 1014.7 |
| 20260505192305 | 58 | 146 | 1.0 | 3.0 | 0.00 | 0.02 | 0.02 | 80 | 1014.9 |
| 20260505191800 | 57 | 168 | 1.0 | 3.0 | 0.00 | 0.02 | 0.02 | 79 | 1014.9 |
| 20260505191258 | 57 | 157 | 3.0 | 3.0 | 0.00 | 0.02 | 0.02 | 80 | 1014.3 |
| 20260505190754 | 57 | 224 | 1.0 | 2.0 | 0.00 | 0.02 | 0.02 | 80 | 1014.6 |
| 20260505190249 | 58 | 341 | 3.0 | 5.0 | 0.00 | 0.02 | 0.02 | 79 | 1014.6 |
| 20260505185746 | 57 | 174 | 2.0 | 2.0 | 0.00 | 0.02 | 0.02 | 79 | 1014.6 |
| 20260505185242 | 58 | 197 | 2.0 | 6.0 | 0.00 | 0.02 | 0.02 | 80 | 1014.6 |
| 20260505184738 | 58 | 322 | 3.0 | 3.0 | 0.00 | 0.02 | 0.02 | 78 | 1014.4 |
| 20260505184236 | 57 | 256 | 3.0 | 3.0 | 0.00 | 0.02 | 0.02 | 80 | 1014.6 |
| 20260505183733 | 57 | 186 | 2.0 | 5.0 | 0.00 | 0.02 | 0.02 | 82 | 1014.6 |
| 20260505183230 | 57 | 144 | 1.0 | 3.0 | 0.00 | 0.02 | 0.02 | 84 | 1014.2 |
| 20260505182726 | 56 | 290 | 3.0 | 5.0 | 0.00 | 0.02 | 0.02 | 85 | 1014.4 |
| 20260505182223 | 56 | 250 | 2.0 | 2.0 | 0.00 | 0.02 | 0.02 | 84 | 1014.6 |
| 20260505181720 | 56 | 223 | 2.0 | 3.0 | 0.00 | 0.02 | 0.02 | 84 | 1014.6 |
| 20260505181217 | 55 | 80 | 0.0 | 2.0 | 0.00 | 0.02 | 0.02 | 86 | 1014.7 |
| 20260505180714 | 55 | 258 | 2.0 | 3.0 | 0.00 | 0.02 | 0.02 | 86 | 1014.4 |
| 20260505180210 | 55 | 249 | 2.0 | 3.0 | 0.00 | 0.02 | 0.02 | 87 | 1014.7 |
| 20260505175706 | 55 | 272 | 3.0 | 5.0 | 0.00 | 0.02 | 0.02 | 87 | 1014.8 |
| 20260505175203 | 55 | 4 | 1.0 | 2.0 | 0.00 | 0.02 | 0.02 | 87 | 1014.8 |
| 20260505174659 | 55 | 217 | 1.0 | 2.0 | 0.00 | 0.02 | 0.02 | 87 | 1014.4 |
| 20260505174155 | 55 | 303 | 1.0 | 1.0 | 0.00 | 0.02 | 0.02 | 88 | 1014.7 |
| 20260505173652 | 54 | 119 | 0.0 | 2.0 | 0.00 | 0.02 | 0.02 | 88 | 1014.6 |
| 20260505173149 | 54 | 167 | 1.0 | 3.0 | 0.00 | 0.02 | 0.02 | 89 | 1014.4 |
| 20260505172647 | 54 | 173 | 3.0 | 3.0 | 0.00 | 0.02 | 0.02 | 89 | 1014.4 |
| 20260505172144 | 54 | 164 | 2.0 | 3.0 | 0.00 | 0.02 | 0.02 | 92 | 1014.3 |
| 20260505171643 | 53 | 106 | 1.0 | 2.0 | 0.00 | 0.02 | 0.02 | 93 | 1014.6 |
| 20260505171141 | 53 | 171 | 1.0 | 1.0 | 0.00 | 0.02 | 0.02 | 93 | 1014.4 |
| 20260505170638 | 53 | 94 | 0.0 | 3.0 | 0.00 | 0.02 | 0.02 | 93 | 1014.4 |
| 20260505170134 | 53 | 269 | 2.0 | 3.0 | 0.00 | 0.02 | 0.02 | 92 | 1014.7 |
| 20260505165629 | 52 | 204 | 0.0 | 2.0 | 0.00 | 0.02 | 0.02 | 92 | 1014.6 |
| 20260505165126 | 52 | 1 | 1.0 | 2.0 | 0.00 | 0.02 | 0.02 | 92 | 1014.7 |
| 20260505164621 | 52 | 272 | 1.0 | 2.0 | 0.00 | 0.02 | 0.02 | 92 | 1014.4 |
| 20260505164119 | 53 | 343 | 0.0 | 2.0 | 0.00 | 0.02 | 0.02 | 93 | 1014.6 |
| 20260505163617 | 52 | 8 | 1.0 | 2.0 | 0.00 | 0.02 | 0.02 | 93 | 1014.4 |
| 20260505163114 | 52 | 310 | 2.0 | 2.0 | 0.00 | 0.02 | 0.02 | 93 | 1014.6 |
| 20260505162612 | 52 | 305 | 0.0 | 1.0 | 0.00 | 0.02 | 0.02 | 93 | 1014.3 |
| 20260505162109 | 52 | 323 | 1.0 | 1.0 | 0.00 | 0.02 | 0.02 | 94 | 1014.3 |
| 20260505161606 | 52 | 281 | 1.0 | 1.0 | 0.00 | 0.02 | 0.02 | 95 | 1014.2 |
| 20260505161103 | 52 | 166 | 1.0 | 2.0 | 0.00 | 0.02 | 0.02 | 95 | 1014.3 |
| 20260505160601 | 51 | 85 | 0.0 | 1.0 | 0.00 | 0.02 | 0.02 | 95 | 1014.2 |
| 20260505153038 | 51 | 184 | 0.0 | 1.0 | 0.00 | 0.02 | 0.02 | 96 | 1014.1 |
| 20260505152534 | 51 | 176 | 1.0 | 1.0 | 0.00 | 0.02 | 0.02 | 96 | 1013.9 |
| 20260505152030 | 51 | 176 | 0.0 | 1.0 | 0.00 | 0.02 | 0.02 | 96 | 1014.1 |
| 20260505151531 | 51 | 176 | 1.0 | 2.0 | 0.00 | 0.02 | 0.02 | 96 | 1013.9 |
| 20260505151029 | 51 | 169 | 0.0 | 2.0 | 0.00 | 0.02 | 0.02 | 96 | 1013.8 |
| 20260505150525 | 51 | 162 | 1.0 | 1.0 | 0.00 | 0.02 | 0.02 | 96 | 1013.9 |
| 20260505140450 | 50 | 159 | 0.0 | 1.0 | 0.00 | 0.02 | 0.02 | 96 | 1013.5 |
| 20260505124903 | 50 | 162 | 0.0 | 0.0 | 0.00 | 0.02 | 0.02 | 96 | 1012.9 |
| 20260505124400 | 50 | 162 | 0.0 | 1.0 | 0.00 | 0.02 | 0.02 | 96 | 1013.0 |
| 20260505123856 | 50 | 162 | 0.0 | 0.0 | 0.00 | 0.02 | 0.02 | 96 | 1013.1 |
| 20260505123353 | 50 | 162 | 0.0 | 1.0 | 0.00 | 0.02 | 0.02 | 96 | 1013.0 |
| 20260505122849 | 50 | 162 | 0.0 | 0.0 | 0.00 | 0.02 | 0.02 | 95 | 1013.0 |
| 20260505122346 | 50 | 162 | 0.0 | 0.0 | 0.00 | 0.02 | 0.02 | 95 | 1013.1 |
| 20260505121843 | 50 | 162 | 0.0 | 1.0 | 0.00 | 0.02 | 0.02 | 95 | 1013.1 |
| 20260505121340 | 50 | 158 | 1.0 | 1.0 | 0.00 | 0.02 | 0.02 | 95 | 1013.2 |
| 20260505120836 | 50 | 159 | 0.0 | 1.0 | 0.00 | 0.02 | 0.02 | 95 | 1013.1 |
| 20260505120332 | 50 | 159 | 0.0 | 1.0 | 0.00 | 0.02 | 0.02 | 95 | 1013.0 |
| 20260505115831 | 50 | 160 | 0.0 | 1.0 | 0.00 | 0.02 | 0.02 | 95 | 1012.8 |
| 20260505115328 | 50 | 160 | 0.0 | 0.0 | 0.00 | 0.02 | 0.02 | 95 | 1012.7 |
| 20260505114826 | 51 | 160 | 0.0 | 1.0 | 0.00 | 0.02 | 0.02 | 95 | 1012.8 |
| 20260505114322 | 50 | 161 | 1.0 | 1.0 | 0.00 | 0.02 | 0.02 | 95 | 1012.8 |
| 20260505113819 | 50 | 161 | 1.0 | 1.0 | 0.00 | 0.02 | 0.02 | 95 | 1012.9 |
| 20260505113315 | 50 | 152 | 1.0 | 2.0 | 0.00 | 0.02 | 0.02 | 94 | 1013.1 |
| 20260505112811 | 51 | 132 | 0.0 | 1.0 | 0.00 | 0.02 | 0.02 | 94 | 1013.1 |
| 20260505112309 | 51 | 132 | 0.0 | 0.0 | 0.00 | 0.02 | 0.02 | 94 | 1013.0 |
| 20260505111804 | 51 | 135 | 1.0 | 1.0 | 0.00 | 0.02 | 0.02 | 94 | 1013.1 |
| 20260505111300 | 51 | 133 | 0.0 | 1.0 | 0.00 | 0.02 | 0.02 | 94 | 1013.0 |
| 20260505110756 | 51 | 91 | 0.0 | 1.0 | 0.00 | 0.02 | 0.02 | 94 | 1012.9 |
| 20260505110254 | 51 | 53 | 1.0 | 1.0 | 0.00 | 0.02 | 0.02 | 93 | 1013.0 |
| 20260505101728 | 51 | 69 | 0.0 | 0.0 | 0.00 | 0.02 | 0.02 | 89 | 1012.7 |
| 20260505101224 | 51 | 81 | 0.0 | 0.0 | 0.00 | 0.02 | 0.02 | 89 | 1012.8 |
| 20260505100720 | 51 | 82 | 0.0 | 0.0 | 0.00 | 0.02 | 0.02 | 89 | 1012.8 |
| 20260505100217 | 51 | 78 | 0.0 | 0.0 | 0.00 | 0.02 | 0.02 | 89 | 1012.5 |
| 20260505095712 | 51 | 91 | 0.0 | 0.0 | 0.00 | 0.02 | 0.02 | 89 | 1012.9 |
| 20260505095211 | 52 | 93 | 0.0 | 0.0 | 0.00 | 0.02 | 0.02 | 89 | 1012.7 |
| 20260505094706 | 52 | 98 | 0.0 | 1.0 | 0.00 | 0.02 | 0.02 | 89 | 1012.5 |
| 20260505094203 | 51 | 100 | 1.0 | 1.0 | 0.00 | 0.02 | 0.02 | 89 | 1012.9 |
| 20260505093659 | 51 | 75 | 0.0 | 0.0 | 0.00 | 0.02 | 0.02 | 89 | 1012.7 |
| 20260505093157 | 51 | 89 | 0.0 | 1.0 | 0.00 | 0.02 | 0.02 | 90 | 1012.9 |
| 20260505092653 | 51 | 76 | 0.0 | 0.0 | 0.00 | 0.02 | 0.02 | 90 | 1012.9 |
| 20260505092152 | 51 | 45 | 1.0 | 2.0 | 0.00 | 0.02 | 0.02 | 90 | 1012.9 |
| 20260505091649 | 51 | 61 | 0.0 | 1.0 | 0.00 | 0.02 | 0.02 | 89 | 1013.1 |
| 20260505091146 | 51 | 68 | 0.0 | 1.0 | 0.00 | 0.02 | 0.02 | 89 | 1013.0 |
| 20260505090644 | 51 | 87 | 0.0 | 1.0 | 0.00 | 0.02 | 0.02 | 89 | 1013.0 |
| 20260505090142 | 51 | 81 | 0.0 | 1.0 | 0.00 | 0.02 | 0.02 | 90 | 1013.1 |
| 20260505085639 | 51 | 56 | 0.0 | 1.0 | 0.00 | 0.02 | 0.02 | 90 | 1013.2 |
| 20260505085137 | 51 | 69 | 0.0 | 1.0 | 0.00 | 0.02 | 0.02 | 90 | 1013.0 |
| 20260505084635 | 51 | 88 | 0.0 | 0.0 | 0.00 | 0.02 | 0.02 | 90 | 1013.2 |
| 20260505084133 | 51 | 78 | 0.0 | 0.0 | 0.00 | 0.02 | 0.02 | 89 | 1013.1 |
| 20260505083630 | 51 | 77 | 0.0 | 0.0 | 0.00 | 0.02 | 0.02 | 89 | 1012.9 |
| 20260505083126 | 51 | 81 | 1.0 | 2.0 | 0.00 | 0.02 | 0.02 | 89 | 1013.3 |
| 20260505082623 | 51 | 89 | 1.0 | 2.0 | 0.00 | 0.02 | 0.02 | 89 | 1013.0 |
| 20260505082120 | 51 | 98 | 2.0 | 3.0 | 0.00 | 0.02 | 0.02 | 89 | 1013.1 |
| 20260505081615 | 51 | 82 | 2.0 | 3.0 | 0.00 | 0.02 | 0.02 | 90 | 1013.1 |
| 20260505081114 | 51 | 85 | 2.0 | 3.0 | 0.00 | 0.02 | 0.02 | 90 | 1013.1 |
| 20260505080609 | 51 | 137 | 2.0 | 2.0 | 0.00 | 0.02 | 0.02 | 90 | 1012.9 |
| 20260505080106 | 51 | 119 | 2.0 | 6.0 | 0.00 | 0.02 | 0.02 | 90 | 1013.2 |
| 20260505075602 | 51 | 95 | 2.0 | 5.0 | 0.00 | 0.02 | 0.02 | 91 | 1013.4 |
| 20260505075059 | 51 | 119 | 2.0 | 2.0 | 0.00 | 0.02 | 0.02 | 91 | 1013.4 |
| 20260505074556 | 51 | 47 | 1.0 | 3.0 | 0.00 | 0.02 | 0.02 | 92 | 1013.0 |
| 20260505074053 | 50 | 98 | 2.0 | 5.0 | 0.07 | 0.02 | 0.02 | 92 | 1013.2 |
| 20260505073550 | 51 | 44 | 1.0 | 3.0 | 0.07 | 0.02 | 0.02 | 92 | 1012.9 |
| 20260505073049 | 51 | 170 | 1.0 | 3.0 | 0.00 | 0.01 | 0.01 | 91 | 1011.4 |
| 20260505072549 | 51 | 122 | 2.0 | 5.0 | 0.00 | 0.01 | 0.01 | 91 | 1012.6 |
| 20260505072046 | 51 | 54 | 1.0 | 2.0 | 0.05 | 0.01 | 0.01 | 91 | 1013.4 |
| 20260505071541 | 51 | 67 | 2.0 | 6.0 | 0.05 | 0.01 | 0.01 | 91 | 1013.4 |
| 20260505071040 | 51 | 149 | 2.0 | 5.0 | 0.00 | 0.00 | 0.00 | 91 | 1013.3 |
| 20260505070537 | 51 | 170 | 2.0 | 2.0 | 0.00 | 0.00 | 0.00 | 91 | 1014.1 |
| 20260505070033 | 51 | 72 | 0.0 | 3.0 | 0.00 | 0.14 | 0.14 | 91 | 1013.9 |